sensor_id;sensor_type;location;lat;lon;timestamp;P1;durP1;ratioP1;P2;durP2;ratioP2
3311;SDS011;1668;49.648;8.570;2023-08-06T00:00:54;3.90;;;2.70;;
3311;SDS011;1668;49.648;8.570;2023-08-06T00:03:21;4.30;;;3.10;;
3311;SDS011;1668;49.648;8.570;2023-08-06T00:05:48;5.03;;;2.93;;
3311;SDS011;1668;49.648;8.570;2023-08-06T00:08:15;4.40;;;3.10;;
3311;SDS011;1668;49.648;8.570;2023-08-06T00:10:43;9.50;;;3.77;;
3311;SDS011;1668;49.648;8.570;2023-08-06T00:13:10;5.17;;;4.00;;
3311;SDS011;1668;49.648;8.570;2023-08-06T00:15:37;5.17;;;2.97;;
3311;SDS011;1668;49.648;8.570;2023-08-06T00:18:04;11.23;;;3.60;;
3311;SDS011;1668;49.648;8.570;2023-08-06T00:20:31;5.43;;;3.73;;
3311;SDS011;1668;49.648;8.570;2023-08-06T00:22:58;6.90;;;2.97;;
3311;SDS011;1668;49.648;8.570;2023-08-06T00:25:25;7.33;;;3.60;;
3311;SDS011;1668;49.648;8.570;2023-08-06T00:27:53;4.80;;;3.23;;
3311;SDS011;1668;49.648;8.570;2023-08-06T00:30:21;5.50;;;3.13;;
3311;SDS011;1668;49.648;8.570;2023-08-06T00:32:48;4.43;;;3.47;;
3311;SDS011;1668;49.648;8.570;2023-08-06T00:35:15;3.77;;;3.33;;
3311;SDS011;1668;49.648;8.570;2023-08-06T00:37:42;4.07;;;2.97;;
3311;SDS011;1668;49.648;8.570;2023-08-06T00:40:09;4.23;;;3.00;;
3311;SDS011;1668;49.648;8.570;2023-08-06T00:42:36;6.43;;;3.37;;
3311;SDS011;1668;49.648;8.570;2023-08-06T00:45:05;6.07;;;3.17;;
3311;SDS011;1668;49.648;8.570;2023-08-06T00:47:32;5.17;;;3.30;;
3311;SDS011;1668;49.648;8.570;2023-08-06T00:49:59;6.47;;;3.50;;
3311;SDS011;1668;49.648;8.570;2023-08-06T00:52:26;5.17;;;3.60;;
3311;SDS011;1668;49.648;8.570;2023-08-06T00:54:53;4.80;;;3.10;;
3311;SDS011;1668;49.648;8.570;2023-08-06T00:57:20;5.13;;;3.07;;
3311;SDS011;1668;49.648;8.570;2023-08-06T00:59:50;7.27;;;3.70;;
3311;SDS011;1668;49.648;8.570;2023-08-06T01:02:19;6.53;;;3.90;;
3311;SDS011;1668;49.648;8.570;2023-08-06T01:04:46;5.53;;;4.00;;
3311;SDS011;1668;49.648;8.570;2023-08-06T01:07:16;3.87;;;3.40;;
3311;SDS011;1668;49.648;8.570;2023-08-06T01:09:57;7.20;;;3.30;;
3311;SDS011;1668;49.648;8.570;2023-08-06T01:12:31;4.77;;;3.10;;
3311;SDS011;1668;49.648;8.570;2023-08-06T01:15:07;3.33;;;2.87;;
3311;SDS011;1668;49.648;8.570;2023-08-06T01:17:39;5.90;;;3.53;;
3311;SDS011;1668;49.648;8.570;2023-08-06T01:20:07;3.80;;;3.30;;
3311;SDS011;1668;49.648;8.570;2023-08-06T01:22:35;4.23;;;2.90;;
3311;SDS011;1668;49.648;8.570;2023-08-06T01:25:03;8.27;;;3.10;;
3311;SDS011;1668;49.648;8.570;2023-08-06T01:27:32;4.90;;;3.40;;
3311;SDS011;1668;49.648;8.570;2023-08-06T01:30:06;3.50;;;2.90;;
3311;SDS011;1668;49.648;8.570;2023-08-06T01:32:38;6.20;;;3.00;;
3311;SDS011;1668;49.648;8.570;2023-08-06T01:35:08;6.50;;;3.00;;
3311;SDS011;1668;49.648;8.570;2023-08-06T01:37:39;7.90;;;2.77;;
3311;SDS011;1668;49.648;8.570;2023-08-06T01:40:09;4.27;;;2.73;;
3311;SDS011;1668;49.648;8.570;2023-08-06T01:42:37;4.70;;;3.10;;
3311;SDS011;1668;49.648;8.570;2023-08-06T01:45:04;3.87;;;2.80;;
3311;SDS011;1668;49.648;8.570;2023-08-06T01:47:32;4.90;;;3.63;;
3311;SDS011;1668;49.648;8.570;2023-08-06T01:49:59;4.90;;;2.80;;
3311;SDS011;1668;49.648;8.570;2023-08-06T01:52:26;8.00;;;2.80;;
3311;SDS011;1668;49.648;8.570;2023-08-06T01:54:54;4.60;;;3.47;;
3311;SDS011;1668;49.648;8.570;2023-08-06T01:57:21;4.60;;;2.80;;
3311;SDS011;1668;49.648;8.570;2023-08-06T01:59:48;4.00;;;2.90;;
3311;SDS011;1668;49.648;8.570;2023-08-06T02:02:16;4.30;;;3.17;;
3311;SDS011;1668;49.648;8.570;2023-08-06T02:04:42;5.37;;;3.33;;
3311;SDS011;1668;49.648;8.570;2023-08-06T02:07:09;5.57;;;3.43;;
3311;SDS011;1668;49.648;8.570;2023-08-06T02:09:36;3.00;;;2.60;;
3311;SDS011;1668;49.648;8.570;2023-08-06T02:12:05;3.10;;;2.80;;
3311;SDS011;1668;49.648;8.570;2023-08-06T02:14:33;4.83;;;2.90;;
3311;SDS011;1668;49.648;8.570;2023-08-06T02:17:00;4.87;;;3.10;;
3311;SDS011;1668;49.648;8.570;2023-08-06T02:19:27;6.13;;;3.40;;
3311;SDS011;1668;49.648;8.570;2023-08-06T02:21:54;7.00;;;2.70;;
3311;SDS011;1668;49.648;8.570;2023-08-06T02:24:21;11.30;;;3.23;;
3311;SDS011;1668;49.648;8.570;2023-08-06T02:26:48;3.03;;;2.73;;
3311;SDS011;1668;49.648;8.570;2023-08-06T02:29:17;5.70;;;3.00;;
3311;SDS011;1668;49.648;8.570;2023-08-06T02:31:44;3.37;;;2.83;;
3311;SDS011;1668;49.648;8.570;2023-08-06T02:34:11;4.77;;;3.20;;
3311;SDS011;1668;49.648;8.570;2023-08-06T02:36:38;3.90;;;2.90;;
3311;SDS011;1668;49.648;8.570;2023-08-06T02:39:05;7.70;;;2.90;;
3311;SDS011;1668;49.648;8.570;2023-08-06T02:41:32;4.27;;;2.67;;
3311;SDS011;1668;49.648;8.570;2023-08-06T02:43:59;3.23;;;2.87;;
3311;SDS011;1668;49.648;8.570;2023-08-06T02:46:27;6.17;;;2.93;;
3311;SDS011;1668;49.648;8.570;2023-08-06T02:48:54;8.27;;;3.00;;
3311;SDS011;1668;49.648;8.570;2023-08-06T02:51:21;3.90;;;2.37;;
3311;SDS011;1668;49.648;8.570;2023-08-06T02:53:47;6.20;;;3.20;;
3311;SDS011;1668;49.648;8.570;2023-08-06T02:56:15;3.20;;;2.57;;
3311;SDS011;1668;49.648;8.570;2023-08-06T02:58:42;4.13;;;2.80;;
3311;SDS011;1668;49.648;8.570;2023-08-06T03:01:08;4.50;;;2.93;;
3311;SDS011;1668;49.648;8.570;2023-08-06T03:03:37;3.73;;;2.40;;
3311;SDS011;1668;49.648;8.570;2023-08-06T03:06:04;4.17;;;2.80;;
3311;SDS011;1668;49.648;8.570;2023-08-06T03:08:30;6.47;;;2.80;;
3311;SDS011;1668;49.648;8.570;2023-08-06T03:10:57;3.20;;;2.40;;
3311;SDS011;1668;49.648;8.570;2023-08-06T03:13:24;3.10;;;2.30;;
3311;SDS011;1668;49.648;8.570;2023-08-06T03:15:51;5.67;;;2.60;;
3311;SDS011;1668;49.648;8.570;2023-08-06T03:18:19;5.07;;;2.67;;
3311;SDS011;1668;49.648;8.570;2023-08-06T03:20:48;7.70;;;2.80;;
3311;SDS011;1668;49.648;8.570;2023-08-06T03:23:15;3.47;;;2.50;;
3311;SDS011;1668;49.648;8.570;2023-08-06T03:25:42;3.93;;;3.10;;
3311;SDS011;1668;49.648;8.570;2023-08-06T03:28:09;4.33;;;2.80;;
3311;SDS011;1668;49.648;8.570;2023-08-06T03:30:36;4.23;;;2.67;;
3311;SDS011;1668;49.648;8.570;2023-08-06T03:33:03;3.20;;;2.70;;
3311;SDS011;1668;49.648;8.570;2023-08-06T03:35:30;3.33;;;2.37;;
3311;SDS011;1668;49.648;8.570;2023-08-06T03:37:59;5.03;;;2.77;;
3311;SDS011;1668;49.648;8.570;2023-08-06T03:40:26;4.80;;;2.67;;
3311;SDS011;1668;49.648;8.570;2023-08-06T03:42:52;3.93;;;2.40;;
3311;SDS011;1668;49.648;8.570;2023-08-06T03:45:19;2.80;;;2.10;;
3311;SDS011;1668;49.648;8.570;2023-08-06T03:47:46;4.20;;;2.60;;
3311;SDS011;1668;49.648;8.570;2023-08-06T03:50:13;3.07;;;2.10;;
3311;SDS011;1668;49.648;8.570;2023-08-06T03:52:40;6.63;;;2.80;;
3311;SDS011;1668;49.648;8.570;2023-08-06T03:55:08;2.70;;;1.87;;
3311;SDS011;1668;49.648;8.570;2023-08-06T03:57:35;3.73;;;2.70;;
3311;SDS011;1668;49.648;8.570;2023-08-06T04:00:02;6.13;;;2.50;;
3311;SDS011;1668;49.648;8.570;2023-08-06T04:02:30;3.57;;;2.30;;
3311;SDS011;1668;49.648;8.570;2023-08-06T04:04:57;4.00;;;2.30;;
3311;SDS011;1668;49.648;8.570;2023-08-06T04:07:24;4.17;;;2.60;;
3311;SDS011;1668;49.648;8.570;2023-08-06T04:09:54;2.83;;;2.30;;
3311;SDS011;1668;49.648;8.570;2023-08-06T04:12:25;3.27;;;2.17;;
3311;SDS011;1668;49.648;8.570;2023-08-06T04:14:52;5.00;;;2.47;;
3311;SDS011;1668;49.648;8.570;2023-08-06T04:17:20;3.53;;;2.30;;
3311;SDS011;1668;49.648;8.570;2023-08-06T04:19:47;5.23;;;2.23;;
3311;SDS011;1668;49.648;8.570;2023-08-06T04:22:15;4.80;;;2.33;;
3311;SDS011;1668;49.648;8.570;2023-08-06T04:24:42;3.67;;;2.43;;
3311;SDS011;1668;49.648;8.570;2023-08-06T04:27:09;4.30;;;2.20;;
3311;SDS011;1668;49.648;8.570;2023-08-06T04:29:38;3.40;;;2.53;;
3311;SDS011;1668;49.648;8.570;2023-08-06T04:32:06;8.10;;;2.33;;
3311;SDS011;1668;49.648;8.570;2023-08-06T04:34:34;3.50;;;2.40;;
3311;SDS011;1668;49.648;8.570;2023-08-06T04:37:01;6.93;;;2.10;;
3311;SDS011;1668;49.648;8.570;2023-08-06T04:39:29;4.43;;;2.27;;
3311;SDS011;1668;49.648;8.570;2023-08-06T04:41:56;7.13;;;2.30;;
3311;SDS011;1668;49.648;8.570;2023-08-06T04:44:23;5.97;;;2.30;;
3311;SDS011;1668;49.648;8.570;2023-08-06T04:46:52;3.10;;;1.87;;
3311;SDS011;1668;49.648;8.570;2023-08-06T04:49:19;4.50;;;1.93;;
3311;SDS011;1668;49.648;8.570;2023-08-06T04:51:46;2.73;;;2.10;;
3311;SDS011;1668;49.648;8.570;2023-08-06T04:54:13;8.50;;;2.20;;
3311;SDS011;1668;49.648;8.570;2023-08-06T04:56:40;3.60;;;1.90;;
3311;SDS011;1668;49.648;8.570;2023-08-06T04:59:07;4.33;;;2.20;;
3311;SDS011;1668;49.648;8.570;2023-08-06T05:01:34;5.20;;;2.10;;
3311;SDS011;1668;49.648;8.570;2023-08-06T05:04:02;7.40;;;2.20;;
3311;SDS011;1668;49.648;8.570;2023-08-06T05:06:29;6.63;;;2.70;;
3311;SDS011;1668;49.648;8.570;2023-08-06T05:08:56;3.57;;;2.03;;
3311;SDS011;1668;49.648;8.570;2023-08-06T05:11:23;6.23;;;2.10;;
3311;SDS011;1668;49.648;8.570;2023-08-06T05:13:50;4.33;;;2.27;;
3311;SDS011;1668;49.648;8.570;2023-08-06T05:16:17;5.37;;;2.20;;
3311;SDS011;1668;49.648;8.570;2023-08-06T05:18:44;3.70;;;2.10;;
3311;SDS011;1668;49.648;8.570;2023-08-06T05:21:12;5.43;;;2.20;;
3311;SDS011;1668;49.648;8.570;2023-08-06T05:23:39;5.50;;;2.10;;
3311;SDS011;1668;49.648;8.570;2023-08-06T05:26:06;3.20;;;2.03;;
3311;SDS011;1668;49.648;8.570;2023-08-06T05:28:33;3.60;;;1.87;;
3311;SDS011;1668;49.648;8.570;2023-08-06T05:31:02;3.20;;;1.90;;
3311;SDS011;1668;49.648;8.570;2023-08-06T05:33:30;5.33;;;2.40;;
3311;SDS011;1668;49.648;8.570;2023-08-06T05:35:57;3.07;;;1.73;;
3311;SDS011;1668;49.648;8.570;2023-08-06T05:38:25;4.17;;;2.00;;
3311;SDS011;1668;49.648;8.570;2023-08-06T05:40:52;6.60;;;1.97;;
3311;SDS011;1668;49.648;8.570;2023-08-06T05:43:20;3.50;;;1.67;;
3311;SDS011;1668;49.648;8.570;2023-08-06T05:45:48;5.10;;;2.10;;
3311;SDS011;1668;49.648;8.570;2023-08-06T05:48:16;3.10;;;1.80;;
3311;SDS011;1668;49.648;8.570;2023-08-06T05:50:43;2.33;;;1.67;;
3311;SDS011;1668;49.648;8.570;2023-08-06T05:53:10;3.87;;;1.93;;
3311;SDS011;1668;49.648;8.570;2023-08-06T05:55:39;4.33;;;1.60;;
3311;SDS011;1668;49.648;8.570;2023-08-06T05:58:06;3.47;;;1.47;;
3311;SDS011;1668;49.648;8.570;2023-08-06T06:00:33;2.23;;;1.53;;
3311;SDS011;1668;49.648;8.570;2023-08-06T06:03:00;2.70;;;1.20;;
3311;SDS011;1668;49.648;8.570;2023-08-06T06:05:27;2.60;;;1.20;;
3311;SDS011;1668;49.648;8.570;2023-08-06T06:07:54;1.70;;;1.20;;
3311;SDS011;1668;49.648;8.570;2023-08-06T06:10:21;3.13;;;1.20;;
3311;SDS011;1668;49.648;8.570;2023-08-06T06:12:49;2.87;;;1.13;;
3311;SDS011;1668;49.648;8.570;2023-08-06T06:15:16;6.90;;;1.27;;
3311;SDS011;1668;49.648;8.570;2023-08-06T06:17:44;3.43;;;1.23;;
3311;SDS011;1668;49.648;8.570;2023-08-06T06:20:10;3.90;;;1.40;;
3311;SDS011;1668;49.648;8.570;2023-08-06T06:22:37;2.10;;;1.10;;
3311;SDS011;1668;49.648;8.570;2023-08-06T06:25:05;3.10;;;1.20;;
3311;SDS011;1668;49.648;8.570;2023-08-06T06:27:32;2.07;;;1.10;;
3311;SDS011;1668;49.648;8.570;2023-08-06T06:30:01;2.70;;;1.40;;
3311;SDS011;1668;49.648;8.570;2023-08-06T06:32:29;2.53;;;1.20;;
3311;SDS011;1668;49.648;8.570;2023-08-06T06:34:56;5.90;;;1.67;;
3311;SDS011;1668;49.648;8.570;2023-08-06T06:37:24;3.17;;;1.40;;
3311;SDS011;1668;49.648;8.570;2023-08-06T06:39:51;3.37;;;1.20;;
3311;SDS011;1668;49.648;8.570;2023-08-06T06:42:17;3.23;;;1.40;;
3311;SDS011;1668;49.648;8.570;2023-08-06T06:44:45;3.30;;;1.40;;
3311;SDS011;1668;49.648;8.570;2023-08-06T06:47:15;6.40;;;1.27;;
3311;SDS011;1668;49.648;8.570;2023-08-06T06:49:41;3.23;;;1.20;;
3311;SDS011;1668;49.648;8.570;2023-08-06T06:52:09;3.83;;;1.37;;
3311;SDS011;1668;49.648;8.570;2023-08-06T06:54:36;3.13;;;1.13;;
3311;SDS011;1668;49.648;8.570;2023-08-06T06:57:03;3.20;;;1.40;;
3311;SDS011;1668;49.648;8.570;2023-08-06T06:59:31;3.47;;;1.13;;
3311;SDS011;1668;49.648;8.570;2023-08-06T07:01:58;3.00;;;1.30;;
3311;SDS011;1668;49.648;8.570;2023-08-06T07:04:26;3.90;;;1.50;;
3311;SDS011;1668;49.648;8.570;2023-08-06T07:06:53;4.87;;;1.70;;
3311;SDS011;1668;49.648;8.570;2023-08-06T07:09:20;5.23;;;1.27;;
3311;SDS011;1668;49.648;8.570;2023-08-06T07:11:47;3.13;;;1.30;;
3311;SDS011;1668;49.648;8.570;2023-08-06T07:14:14;2.10;;;1.20;;
3311;SDS011;1668;49.648;8.570;2023-08-06T07:16:41;3.30;;;1.60;;
3311;SDS011;1668;49.648;8.570;2023-08-06T07:19:08;5.40;;;1.40;;
3311;SDS011;1668;49.648;8.570;2023-08-06T07:21:37;4.33;;;1.17;;
3311;SDS011;1668;49.648;8.570;2023-08-06T07:24:04;2.00;;;1.17;;
3311;SDS011;1668;49.648;8.570;2023-08-06T07:26:30;7.23;;;1.30;;
3311;SDS011;1668;49.648;8.570;2023-08-06T07:28:57;3.87;;;1.43;;
3311;SDS011;1668;49.648;8.570;2023-08-06T07:31:24;4.10;;;1.20;;
3311;SDS011;1668;49.648;8.570;2023-08-06T07:33:51;2.77;;;1.03;;
3311;SDS011;1668;49.648;8.570;2023-08-06T07:36:18;3.60;;;1.37;;
3311;SDS011;1668;49.648;8.570;2023-08-06T07:38:46;4.13;;;1.23;;
3311;SDS011;1668;49.648;8.570;2023-08-06T07:41:16;2.70;;;0.90;;
3311;SDS011;1668;49.648;8.570;2023-08-06T07:43:43;5.80;;;1.43;;
3311;SDS011;1668;49.648;8.570;2023-08-06T07:46:10;3.97;;;1.00;;
3311;SDS011;1668;49.648;8.570;2023-08-06T07:48:38;7.47;;;1.00;;
3311;SDS011;1668;49.648;8.570;2023-08-06T07:51:05;3.70;;;1.00;;
3311;SDS011;1668;49.648;8.570;2023-08-06T07:53:32;2.23;;;1.57;;
3311;SDS011;1668;49.648;8.570;2023-08-06T07:56:00;2.40;;;1.00;;
3311;SDS011;1668;49.648;8.570;2023-08-06T07:58:28;3.90;;;1.13;;
3311;SDS011;1668;49.648;8.570;2023-08-06T08:00:56;5.00;;;1.13;;
3311;SDS011;1668;49.648;8.570;2023-08-06T08:03:23;2.13;;;0.80;;
3311;SDS011;1668;49.648;8.570;2023-08-06T08:05:53;3.97;;;1.07;;
3311;SDS011;1668;49.648;8.570;2023-08-06T08:08:23;3.20;;;1.30;;
3311;SDS011;1668;49.648;8.570;2023-08-06T08:10:50;2.90;;;1.20;;
3311;SDS011;1668;49.648;8.570;2023-08-06T08:13:18;4.13;;;1.03;;
3311;SDS011;1668;49.648;8.570;2023-08-06T08:15:46;3.60;;;1.30;;
3311;SDS011;1668;49.648;8.570;2023-08-06T08:18:13;2.93;;;0.80;;
3311;SDS011;1668;49.648;8.570;2023-08-06T08:20:39;2.00;;;1.03;;
3311;SDS011;1668;49.648;8.570;2023-08-06T08:23:06;2.43;;;1.30;;
3311;SDS011;1668;49.648;8.570;2023-08-06T08:25:33;3.07;;;1.00;;
3311;SDS011;1668;49.648;8.570;2023-08-06T08:28:00;3.63;;;1.17;;
3311;SDS011;1668;49.648;8.570;2023-08-06T08:30:28;2.00;;;0.90;;
3311;SDS011;1668;49.648;8.570;2023-08-06T08:32:55;1.73;;;1.00;;
3311;SDS011;1668;49.648;8.570;2023-08-06T08:35:22;3.00;;;1.07;;
3311;SDS011;1668;49.648;8.570;2023-08-06T08:37:50;2.80;;;0.93;;
3311;SDS011;1668;49.648;8.570;2023-08-06T08:40:17;1.50;;;0.90;;
3311;SDS011;1668;49.648;8.570;2023-08-06T08:42:44;2.33;;;1.00;;
3311;SDS011;1668;49.648;8.570;2023-08-06T08:45:12;1.20;;;0.80;;
3311;SDS011;1668;49.648;8.570;2023-08-06T08:47:41;2.00;;;0.90;;
3311;SDS011;1668;49.648;8.570;2023-08-06T08:50:09;3.10;;;0.90;;
3311;SDS011;1668;49.648;8.570;2023-08-06T08:52:37;3.00;;;1.00;;
3311;SDS011;1668;49.648;8.570;2023-08-06T08:55:05;1.90;;;0.90;;
3311;SDS011;1668;49.648;8.570;2023-08-06T08:57:34;2.30;;;0.97;;
3311;SDS011;1668;49.648;8.570;2023-08-06T09:00:01;1.63;;;0.97;;
3311;SDS011;1668;49.648;8.570;2023-08-06T09:02:37;2.00;;;0.93;;
3311;SDS011;1668;49.648;8.570;2023-08-06T09:05:09;1.20;;;0.83;;
3311;SDS011;1668;49.648;8.570;2023-08-06T09:07:39;1.30;;;0.90;;
3311;SDS011;1668;49.648;8.570;2023-08-06T09:10:10;1.07;;;0.80;;
3311;SDS011;1668;49.648;8.570;2023-08-06T09:12:38;1.30;;;0.90;;
3311;SDS011;1668;49.648;8.570;2023-08-06T09:15:06;1.40;;;0.77;;
3311;SDS011;1668;49.648;8.570;2023-08-06T09:17:33;1.10;;;0.80;;
3311;SDS011;1668;49.648;8.570;2023-08-06T09:20:13;2.17;;;1.00;;
3311;SDS011;1668;49.648;8.570;2023-08-06T09:22:40;2.13;;;1.07;;
3311;SDS011;1668;49.648;8.570;2023-08-06T09:25:09;1.90;;;0.90;;
3311;SDS011;1668;49.648;8.570;2023-08-06T09:27:38;1.20;;;0.90;;
3311;SDS011;1668;49.648;8.570;2023-08-06T09:30:06;3.97;;;0.83;;
3311;SDS011;1668;49.648;8.570;2023-08-06T09:32:44;1.40;;;0.80;;
3311;SDS011;1668;49.648;8.570;2023-08-06T09:35:16;0.87;;;0.70;;
3311;SDS011;1668;49.648;8.570;2023-08-06T09:37:44;5.50;;;0.73;;
3311;SDS011;1668;49.648;8.570;2023-08-06T09:40:24;1.67;;;0.70;;
3311;SDS011;1668;49.648;8.570;2023-08-06T09:42:52;2.00;;;0.60;;
3311;SDS011;1668;49.648;8.570;2023-08-06T09:45:19;1.00;;;0.60;;
3311;SDS011;1668;49.648;8.570;2023-08-06T09:47:47;1.30;;;0.50;;
3311;SDS011;1668;49.648;8.570;2023-08-06T09:50:16;1.00;;;0.60;;
3311;SDS011;1668;49.648;8.570;2023-08-06T09:52:44;0.90;;;0.60;;
3311;SDS011;1668;49.648;8.570;2023-08-06T09:55:12;1.00;;;0.60;;
3311;SDS011;1668;49.648;8.570;2023-08-06T09:57:40;0.70;;;0.50;;
3311;SDS011;1668;49.648;8.570;2023-08-06T10:00:08;0.80;;;0.50;;
3311;SDS011;1668;49.648;8.570;2023-08-06T10:02:37;1.20;;;0.50;;
3311;SDS011;1668;49.648;8.570;2023-08-06T10:05:05;0.80;;;0.50;;
3311;SDS011;1668;49.648;8.570;2023-08-06T10:07:34;1.97;;;0.80;;
3311;SDS011;1668;49.648;8.570;2023-08-06T10:10:02;1.07;;;0.50;;
3311;SDS011;1668;49.648;8.570;2023-08-06T10:12:30;0.70;;;0.50;;
3311;SDS011;1668;49.648;8.570;2023-08-06T10:15:01;1.10;;;0.60;;
3311;SDS011;1668;49.648;8.570;2023-08-06T10:17:30;1.00;;;0.50;;
3311;SDS011;1668;49.648;8.570;2023-08-06T10:19:59;1.80;;;0.83;;
3311;SDS011;1668;49.648;8.570;2023-08-06T10:22:26;0.70;;;0.50;;
3311;SDS011;1668;49.648;8.570;2023-08-06T10:24:55;1.10;;;0.60;;
3311;SDS011;1668;49.648;8.570;2023-08-06T10:27:28;0.80;;;0.50;;
3311;SDS011;1668;49.648;8.570;2023-08-06T10:29:56;1.77;;;0.50;;
3311;SDS011;1668;49.648;8.570;2023-08-06T10:32:46;1.93;;;0.60;;
3311;SDS011;1668;49.648;8.570;2023-08-06T10:35:27;0.93;;;0.50;;
3311;SDS011;1668;49.648;8.570;2023-08-06T10:37:57;1.67;;;0.60;;
3311;SDS011;1668;49.648;8.570;2023-08-06T10:40:26;0.97;;;0.50;;
3311;SDS011;1668;49.648;8.570;2023-08-06T10:42:55;1.20;;;0.50;;
3311;SDS011;1668;49.648;8.570;2023-08-06T10:45:22;0.80;;;0.50;;
3311;SDS011;1668;49.648;8.570;2023-08-06T10:47:53;0.80;;;0.50;;
3311;SDS011;1668;49.648;8.570;2023-08-06T10:50:21;0.70;;;0.50;;
3311;SDS011;1668;49.648;8.570;2023-08-06T10:52:48;2.13;;;0.57;;
3311;SDS011;1668;49.648;8.570;2023-08-06T10:55:22;1.30;;;0.57;;
3311;SDS011;1668;49.648;8.570;2023-08-06T10:57:51;0.80;;;0.50;;
3311;SDS011;1668;49.648;8.570;2023-08-06T11:00:18;0.90;;;0.60;;
3311;SDS011;1668;49.648;8.570;2023-08-06T11:02:47;0.70;;;0.50;;
3311;SDS011;1668;49.648;8.570;2023-08-06T11:05:15;0.80;;;0.50;;
3311;SDS011;1668;49.648;8.570;2023-08-06T11:07:42;1.03;;;0.53;;
3311;SDS011;1668;49.648;8.570;2023-08-06T11:10:10;0.80;;;0.50;;
3311;SDS011;1668;49.648;8.570;2023-08-06T11:12:38;0.73;;;0.53;;
3311;SDS011;1668;49.648;8.570;2023-08-06T11:15:07;0.80;;;0.50;;
3311;SDS011;1668;49.648;8.570;2023-08-06T11:17:34;0.80;;;0.60;;
3311;SDS011;1668;49.648;8.570;2023-08-06T11:20:02;1.00;;;0.60;;
3311;SDS011;1668;49.648;8.570;2023-08-06T11:22:30;1.10;;;0.73;;
3311;SDS011;1668;49.648;8.570;2023-08-06T11:24:57;1.77;;;0.80;;
3311;SDS011;1668;49.648;8.570;2023-08-06T11:27:26;1.83;;;0.80;;
3311;SDS011;1668;49.648;8.570;2023-08-06T11:29:54;1.10;;;0.70;;
3311;SDS011;1668;49.648;8.570;2023-08-06T11:32:22;1.43;;;0.63;;
3311;SDS011;1668;49.648;8.570;2023-08-06T11:34:49;2.63;;;0.80;;
3311;SDS011;1668;49.648;8.570;2023-08-06T11:37:16;0.90;;;0.60;;
3311;SDS011;1668;49.648;8.570;2023-08-06T11:39:47;0.80;;;0.53;;
3311;SDS011;1668;49.648;8.570;2023-08-06T11:42:15;0.80;;;0.60;;
3311;SDS011;1668;49.648;8.570;2023-08-06T11:44:42;1.20;;;0.70;;
3311;SDS011;1668;49.648;8.570;2023-08-06T11:47:12;1.10;;;0.70;;
3311;SDS011;1668;49.648;8.570;2023-08-06T11:49:43;1.13;;;0.70;;
3311;SDS011;1668;49.648;8.570;2023-08-06T11:52:13;1.20;;;0.70;;
3311;SDS011;1668;49.648;8.570;2023-08-06T11:54:43;2.30;;;0.90;;
3311;SDS011;1668;49.648;8.570;2023-08-06T11:57:11;4.40;;;0.60;;
3311;SDS011;1668;49.648;8.570;2023-08-06T11:59:38;1.97;;;0.60;;
3311;SDS011;1668;49.648;8.570;2023-08-06T12:02:07;0.90;;;0.70;;
3311;SDS011;1668;49.648;8.570;2023-08-06T12:07:31;1.53;;;0.80;;
3311;SDS011;1668;49.648;8.570;2023-08-06T12:09:58;1.77;;;0.90;;
3311;SDS011;1668;49.648;8.570;2023-08-06T12:12:26;0.90;;;0.63;;
3311;SDS011;1668;49.648;8.570;2023-08-06T12:14:52;2.43;;;0.70;;
3311;SDS011;1668;49.648;8.570;2023-08-06T12:17:20;1.37;;;0.60;;
3311;SDS011;1668;49.648;8.570;2023-08-06T12:19:47;2.20;;;0.77;;
3311;SDS011;1668;49.648;8.570;2023-08-06T12:22:15;1.80;;;1.00;;
3311;SDS011;1668;49.648;8.570;2023-08-06T12:24:43;1.00;;;0.70;;
3311;SDS011;1668;49.648;8.570;2023-08-06T12:27:11;2.30;;;0.80;;
3311;SDS011;1668;49.648;8.570;2023-08-06T12:29:40;1.37;;;0.80;;
3311;SDS011;1668;49.648;8.570;2023-08-06T12:32:08;1.40;;;0.87;;
3311;SDS011;1668;49.648;8.570;2023-08-06T12:34:35;2.57;;;0.73;;
3311;SDS011;1668;49.648;8.570;2023-08-06T12:37:03;1.43;;;0.77;;
3311;SDS011;1668;49.648;8.570;2023-08-06T12:39:31;1.20;;;0.70;;
3311;SDS011;1668;49.648;8.570;2023-08-06T12:41:58;2.40;;;0.70;;
3311;SDS011;1668;49.648;8.570;2023-08-06T12:44:25;1.63;;;0.70;;
3311;SDS011;1668;49.648;8.570;2023-08-06T12:46:52;1.67;;;0.70;;
3311;SDS011;1668;49.648;8.570;2023-08-06T12:49:19;2.60;;;0.90;;
3311;SDS011;1668;49.648;8.570;2023-08-06T12:51:47;1.33;;;0.63;;
3311;SDS011;1668;49.648;8.570;2023-08-06T12:54:15;1.57;;;0.80;;
3311;SDS011;1668;49.648;8.570;2023-08-06T12:56:45;0.90;;;0.60;;
3311;SDS011;1668;49.648;8.570;2023-08-06T12:59:13;1.17;;;0.80;;
3311;SDS011;1668;49.648;8.570;2023-08-06T13:01:41;1.90;;;1.00;;
3311;SDS011;1668;49.648;8.570;2023-08-06T13:04:08;1.70;;;0.93;;
3311;SDS011;1668;49.648;8.570;2023-08-06T13:06:35;2.30;;;1.10;;
3311;SDS011;1668;49.648;8.570;2023-08-06T13:09:02;1.33;;;0.80;;
3311;SDS011;1668;49.648;8.570;2023-08-06T13:11:29;1.40;;;0.90;;
3311;SDS011;1668;49.648;8.570;2023-08-06T13:14:03;1.83;;;0.80;;
3311;SDS011;1668;49.648;8.570;2023-08-06T13:16:31;1.73;;;0.93;;
3311;SDS011;1668;49.648;8.570;2023-08-06T13:18:58;1.00;;;0.60;;
3311;SDS011;1668;49.648;8.570;2023-08-06T13:21:30;1.60;;;1.03;;
3311;SDS011;1668;49.648;8.570;2023-08-06T13:23:59;1.10;;;0.80;;
3311;SDS011;1668;49.648;8.570;2023-08-06T13:26:26;1.50;;;1.10;;
3311;SDS011;1668;49.648;8.570;2023-08-06T13:28:53;1.43;;;1.00;;
3311;SDS011;1668;49.648;8.570;2023-08-06T13:31:22;1.30;;;0.80;;
3311;SDS011;1668;49.648;8.570;2023-08-06T13:33:50;1.30;;;0.83;;
3311;SDS011;1668;49.648;8.570;2023-08-06T13:36:17;2.90;;;0.93;;
3311;SDS011;1668;49.648;8.570;2023-08-06T13:38:44;1.20;;;0.80;;
3311;SDS011;1668;49.648;8.570;2023-08-06T13:41:11;1.40;;;0.80;;
3311;SDS011;1668;49.648;8.570;2023-08-06T13:43:39;1.77;;;0.80;;
3311;SDS011;1668;49.648;8.570;2023-08-06T13:46:06;2.60;;;1.00;;
3311;SDS011;1668;49.648;8.570;2023-08-06T13:48:34;1.27;;;0.70;;
3311;SDS011;1668;49.648;8.570;2023-08-06T13:51:01;1.50;;;0.90;;
3311;SDS011;1668;49.648;8.570;2023-08-06T13:53:28;1.40;;;0.80;;
3311;SDS011;1668;49.648;8.570;2023-08-06T13:55:55;1.10;;;0.60;;
3311;SDS011;1668;49.648;8.570;2023-08-06T13:58:22;0.97;;;0.70;;
3311;SDS011;1668;49.648;8.570;2023-08-06T14:00:51;1.37;;;0.67;;
3311;SDS011;1668;49.648;8.570;2023-08-06T14:03:18;2.20;;;0.70;;
3311;SDS011;1668;49.648;8.570;2023-08-06T14:05:46;1.77;;;0.70;;
3311;SDS011;1668;49.648;8.570;2023-08-06T14:08:13;1.20;;;0.60;;
3311;SDS011;1668;49.648;8.570;2023-08-06T14:10:40;1.30;;;0.70;;
3311;SDS011;1668;49.648;8.570;2023-08-06T14:13:07;1.90;;;0.83;;
3311;SDS011;1668;49.648;8.570;2023-08-06T14:15:34;1.73;;;1.10;;
3311;SDS011;1668;49.648;8.570;2023-08-06T14:18:01;1.50;;;0.80;;
3311;SDS011;1668;49.648;8.570;2023-08-06T14:20:28;1.50;;;1.00;;
3311;SDS011;1668;49.648;8.570;2023-08-06T14:22:57;1.00;;;0.70;;
3311;SDS011;1668;49.648;8.570;2023-08-06T14:25:24;1.10;;;0.70;;
3311;SDS011;1668;49.648;8.570;2023-08-06T14:27:51;0.90;;;0.50;;
3311;SDS011;1668;49.648;8.570;2023-08-06T14:30:18;1.93;;;0.70;;
3311;SDS011;1668;49.648;8.570;2023-08-06T14:32:45;1.47;;;0.60;;
3311;SDS011;1668;49.648;8.570;2023-08-06T14:35:12;1.33;;;0.70;;
3311;SDS011;1668;49.648;8.570;2023-08-06T14:37:39;1.90;;;0.70;;
3311;SDS011;1668;49.648;8.570;2023-08-06T14:40:08;4.10;;;1.03;;
3311;SDS011;1668;49.648;8.570;2023-08-06T14:42:35;1.10;;;0.70;;
3311;SDS011;1668;49.648;8.570;2023-08-06T14:45:03;1.10;;;0.80;;
3311;SDS011;1668;49.648;8.570;2023-08-06T14:47:30;0.70;;;0.57;;
3311;SDS011;1668;49.648;8.570;2023-08-06T14:49:57;1.67;;;0.70;;
3311;SDS011;1668;49.648;8.570;2023-08-06T14:52:24;1.10;;;0.60;;
3311;SDS011;1668;49.648;8.570;2023-08-06T14:54:51;1.00;;;0.60;;
3311;SDS011;1668;49.648;8.570;2023-08-06T14:57:22;1.00;;;0.70;;
3311;SDS011;1668;49.648;8.570;2023-08-06T14:59:52;0.90;;;0.60;;
3311;SDS011;1668;49.648;8.570;2023-08-06T15:02:19;1.53;;;0.60;;
3311;SDS011;1668;49.648;8.570;2023-08-06T15:04:46;0.90;;;0.70;;
3311;SDS011;1668;49.648;8.570;2023-08-06T15:07:13;1.80;;;0.87;;
3311;SDS011;1668;49.648;8.570;2023-08-06T15:09:40;4.20;;;0.60;;
3311;SDS011;1668;49.648;8.570;2023-08-06T15:12:07;0.90;;;0.50;;
3311;SDS011;1668;49.648;8.570;2023-08-06T15:14:35;2.10;;;0.60;;
3311;SDS011;1668;49.648;8.570;2023-08-06T15:17:02;1.37;;;0.80;;
3311;SDS011;1668;49.648;8.570;2023-08-06T15:19:29;1.30;;;0.60;;
3311;SDS011;1668;49.648;8.570;2023-08-06T15:21:56;0.83;;;0.60;;